Time;durP1;ratioP1;P1;durP2;ratioP2;P2;SDS_P1;SDS_P2;PMS_P1;PMS_P2;Temp;Humidity;BMP_temperature;BMP_pressure;BME280_temperature;BME280_humidity;BME280_pressure;Samples;Min_cycle;Max_cycle;Signal;HPM_P1;HPM_P2
2021/08/21 00:00:07;;;;;;;14.63;8.20;;;;;;;17.79;83.95;99261.36;4099776;85;21027;-85
2021/08/21 00:06:13;;;;;;;12.77;6.73;;;;;;;17.68;83.83;99258.57;4088628;85;21045;-84
2021/08/21 00:12:14;;;;;;;10.50;6.95;;;;;;;17.73;84.35;99255.34;4118904;85;21481;-84
2021/08/21 00:18:15;;;;;;;9.50;6.97;;;;;;;17.76;84.64;99255.89;4091854;85;21077;-85
2021/08/21 00:24:17;;;;;;;11.70;6.97;;;;;;;17.75;84.72;99255.69;4106593;85;21303;-84
2021/08/21 00:30:18;;;;;;;11.00;6.50;;;;;;;17.69;84.62;99255.38;4105403;85;21347;-84
2021/08/21 00:36:19;;;;;;;13.03;6.87;;;;;;;17.69;85.10;99270.61;4125591;85;21058;-84
2021/08/21 00:42:20;;;;;;;12.23;6.47;;;;;;;17.62;85.23;99274.84;4099574;85;21145;-85
2021/08/21 00:48:23;;;;;;;9.05;6.47;;;;;;;17.69;85.48;99274.77;4118696;85;21081;-84
2021/08/21 00:54:24;;;;;;;9.88;6.30;;;;;;;17.70;85.61;99268.61;4100012;85;22231;-84
2021/08/21 01:00:26;;;;;;;9.60;6.83;;;;;;;17.69;85.67;99265.08;4101859;85;21025;-84
2021/08/21 01:06:27;;;;;;;7.62;6.15;;;;;;;17.65;85.76;99258.02;4108439;85;21097;-85
2021/08/21 01:12:30;;;;;;;9.60;7.17;;;;;;;17.59;85.93;99271.52;4116088;85;21077;-84
2021/08/21 01:18:32;;;;;;;13.20;7.10;;;;;;;17.55;85.75;99261.11;4079122;85;21090;-84
2021/08/21 01:24:36;;;;;;;12.58;8.40;;;;;;;17.57;86.24;99258.69;4117879;85;21034;-85
2021/08/21 01:30:38;;;;;;;10.90;6.53;;;;;;;17.47;85.88;99253.29;4123063;85;21101;-84
2021/08/21 01:36:52;;;;;;;10.50;6.50;;;;;;;17.55;86.41;99247.86;4115002;85;21030;-84
2021/08/21 01:43:13;;;;;;;11.95;6.62;;;;;;;17.60;86.57;99252.34;4115539;85;21428;-85
2021/08/21 01:49:23;;;;;;;12.65;6.12;;;;;;;17.62;86.63;99253.31;4086095;85;21074;-84
2021/08/21 01:55:29;;;;;;;11.35;6.28;;;;;;;17.63;86.73;99253.48;4076804;85;21149;-84
2021/08/21 02:01:30;;;;;;;14.05;7.53;;;;;;;17.56;86.74;99247.44;4126268;85;21629;-84
2021/08/21 02:07:43;;;;;;;12.13;7.87;;;;;;;17.48;86.80;99250.73;4098960;85;21577;-84
2021/08/21 02:13:49;;;;;;;11.65;6.85;;;;;;;17.35;86.89;99257.38;4093722;85;21114;-84
2021/08/21 02:19:50;;;;;;;9.23;6.58;;;;;;;17.31;87.09;99258.00;4106422;85;22203;-84
2021/08/21 02:25:56;;;;;;;11.40;6.78;;;;;;;17.27;87.06;99259.23;4088660;85;21046;-85
2021/08/21 02:31:59;;;;;;;10.45;6.75;;;;;;;17.20;87.12;99261.48;4100068;85;21014;-84
2021/08/21 02:38:04;;;;;;;10.08;6.78;;;;;;;17.07;87.37;99264.58;4106561;85;21021;-85
2021/08/21 02:44:06;;;;;;;10.78;6.75;;;;;;;16.95;87.10;99262.34;4103735;85;21254;-84
2021/08/21 02:50:11;;;;;;;11.65;7.62;;;;;;;16.64;87.18;99260.68;4111619;85;21034;-84
2021/08/21 02:56:12;;;;;;;9.93;7.03;;;;;;;16.47;87.34;99265.18;4125030;85;21444;-84
2021/08/21 03:02:16;;;;;;;14.55;7.85;;;;;;;16.42;88.23;99263.40;4085649;85;21038;-84
2021/08/21 03:08:18;;;;;;;11.43;7.30;;;;;;;16.40;87.95;99267.95;4078006;85;21026;-84
2021/08/21 03:14:22;;;;;;;14.30;7.33;;;;;;;16.21;87.61;99258.05;4115769;85;21530;-84
2021/08/21 03:20:27;;;;;;;11.60;6.90;;;;;;;16.02;88.03;99257.20;4023074;87;21113;-84
2021/08/21 03:26:28;;;;;;;12.18;6.50;;;;;;;15.98;88.18;99268.25;4005205;87;21070;-83
2021/08/21 03:32:30;;;;;;;8.98;6.35;;;;;;;15.93;88.71;99267.91;4010276;86;21055;-84
2021/08/21 03:38:31;;;;;;;10.38;6.53;;;;;;;15.86;88.40;99273.45;4010839;87;21659;-84
2021/08/21 03:44:35;;;;;;;9.88;6.35;;;;;;;15.87;89.28;99273.05;3899015;89;21616;-84
2021/08/21 03:50:36;;;;;;;10.68;6.50;;;;;;;15.99;89.41;99285.62;3941433;88;21080;-84
2021/08/21 03:56:37;;;;;;;7.55;5.87;;;;;;;16.03;89.32;99281.64;4018287;87;22394;-82
2021/08/21 04:02:39;;;;;;;10.82;5.47;;;;;;;16.10;89.33;99283.58;4014032;87;21070;-83
2021/08/21 04:08:41;;;;;;;15.65;6.58;;;;;;;16.18;89.28;99290.02;3950558;88;21072;-84
2021/08/21 04:14:46;;;;;;;14.40;5.40;;;;;;;16.19;89.14;99298.52;3974442;87;21117;-85
2021/08/21 04:20:48;;;;;;;15.50;6.10;;;;;;;16.16;88.73;99309.58;4016965;87;21053;-83
2021/08/21 04:26:50;;;;;;;12.30;6.10;;;;;;;16.09;89.25;99317.89;4025886;87;21517;-84
2021/08/21 04:32:56;;;;;;;10.60;6.08;;;;;;;16.16;89.17;99322.00;3947210;88;21082;-84
2021/08/21 04:38:58;;;;;;;9.05;5.10;;;;;;;16.12;89.30;99321.22;4012735;87;21075;-84
2021/08/21 04:45:00;;;;;;;9.15;5.67;;;;;;;16.29;89.39;99333.55;4008544;87;21568;-85
2021/08/21 04:51:07;;;;;;;12.18;6.25;;;;;;;16.34;89.17;99337.86;4022298;87;21084;-84
2021/08/21 04:57:12;;;;;;;12.33;6.97;;;;;;;16.35;89.45;99349.12;3929825;88;21121;-83
2021/08/21 05:03:17;;;;;;;10.03;4.90;;;;;;;16.37;89.35;99345.33;3925824;88;21087;-84
2021/08/21 05:09:19;;;;;;;10.05;5.40;;;;;;;16.48;89.66;99353.78;4102776;85;21057;-84
2021/08/21 05:15:22;;;;;;;11.97;6.70;;;;;;;16.61;89.78;99356.27;4109429;85;21070;-84
2021/08/21 05:21:31;;;;;;;10.78;6.42;;;;;;;16.78;89.86;99353.95;4094150;85;21061;-84
2021/08/21 05:27:32;;;;;;;10.63;5.75;;;;;;;16.69;89.80;99359.75;4107352;85;21069;-84
2021/08/21 05:33:34;;;;;;;8.58;6.15;;;;;;;16.88;89.99;99373.03;4103185;85;21042;-84
2021/08/21 05:39:35;;;;;;;9.80;5.92;;;;;;;17.02;89.90;99381.21;4126197;85;21631;-84
2021/08/21 05:45:39;;;;;;;14.73;6.35;;;;;;;17.13;89.86;99386.05;4113338;85;21053;-84
2021/08/21 05:51:41;;;;;;;12.18;6.10;;;;;;;17.16;89.64;99395.68;4093139;85;21433;-84
2021/08/21 05:57:43;;;;;;;15.75;6.53;;;;;;;17.21;89.75;99391.72;4102222;85;21106;-85
2021/08/21 06:03:44;;;;;;;14.60;9.05;;;;;;;17.31;89.59;99398.31;4113890;85;21090;-85
2021/08/21 06:09:45;;;;;;;12.43;7.80;;;;;;;17.35;89.38;99399.08;4084702;85;21002;-84
2021/08/21 06:15:46;;;;;;;12.82;7.95;;;;;;;17.34;89.31;99405.83;4005307;87;21080;-85
2021/08/21 06:21:48;;;;;;;10.95;7.47;;;;;;;17.38;89.69;99410.12;3944248;89;21134;-85
2021/08/21 06:27:51;;;;;;;11.83;7.60;;;;;;;17.51;89.73;99411.81;4033023;87;21030;-85
2021/08/21 06:33:52;;;;;;;16.05;8.40;;;;;;;17.59;89.73;99405.77;3970351;87;21415;-84
2021/08/21 06:40:01;;;;;;;14.83;9.28;;;;;;;17.66;89.64;99409.07;4111578;85;21035;-85
2021/08/21 06:46:02;;;;;;;10.98;7.75;;;;;;;17.74;89.40;99407.80;4121044;85;21037;-85
2021/08/21 06:52:04;;;;;;;16.12;8.98;;;;;;;17.78;89.35;99412.69;4100515;85;21546;-86
2021/08/21 06:58:08;;;;;;;15.03;8.45;;;;;;;17.84;88.96;99417.95;4116051;85;21065;-85
2021/08/21 07:04:09;;;;;;;13.43;8.73;;;;;;;17.91;88.88;99415.91;4103977;85;21049;-85
2021/08/21 07:10:12;;;;;;;11.90;7.65;;;;;;;18.02;88.70;99424.88;4103745;85;21077;-84
2021/08/21 07:16:16;;;;;;;11.20;7.80;;;;;;;18.16;88.52;99421.14;4087347;85;21014;-85
2021/08/21 07:22:17;;;;;;;14.78;8.55;;;;;;;18.24;88.21;99420.65;4119029;85;21116;-84
2021/08/21 07:28:18;;;;;;;14.35;9.08;;;;;;;18.36;88.01;99422.06;4103483;85;21030;-85
2021/08/21 07:34:19;;;;;;;15.08;8.88;;;;;;;18.55;87.78;99429.16;4112759;85;21065;-85
2021/08/21 07:40:22;;;;;;;14.87;10.03;;;;;;;18.74;87.63;99432.62;4122231;85;21075;-86
2021/08/21 07:46:24;;;;;;;15.80;8.73;;;;;;;18.96;87.41;99439.25;4102971;85;21077;-85
2021/08/21 07:52:26;;;;;;;14.05;8.68;;;;;;;19.21;87.32;99434.88;4112988;85;21073;-84
2021/08/21 07:58:29;;;;;;;12.98;8.83;;;;;;;19.56;87.04;99441.84;4124762;85;21557;-85
2021/08/21 08:04:30;;;;;;;12.25;8.15;;;;;;;19.96;86.07;99449.80;4091670;85;21037;-86
2021/08/21 08:10:31;;;;;;;13.15;8.13;;;;;;;20.30;85.75;99445.98;4096020;85;21505;-85
2021/08/21 08:16:32;;;;;;;11.33;8.35;;;;;;;20.66;84.81;99448.16;4115583;85;21748;-86
2021/08/21 08:22:34;;;;;;;13.80;7.00;;;;;;;20.84;84.10;99449.94;4118953;85;21059;-85
2021/08/21 08:28:39;;;;;;;11.12;6.80;;;;;;;20.82;82.88;99457.33;4111056;85;21039;-86
2021/08/21 08:34:41;;;;;;;7.15;5.25;;;;;;;21.07;82.33;99455.38;4107671;85;21091;-86
2021/08/21 08:40:42;;;;;;;9.88;6.33;;;;;;;21.26;80.92;99455.91;4106968;85;21037;-85
2021/08/21 08:46:44;;;;;;;12.35;7.03;;;;;;;21.30;79.98;99459.38;4111457;85;21524;-84
2021/08/21 08:52:47;;;;;;;11.83;6.65;;;;;;;21.63;79.42;99463.71;4080574;85;21542;-86
2021/08/21 08:58:48;;;;;;;11.43;5.10;;;;;;;21.90;78.16;99454.47;4110851;85;21021;-85
2021/08/21 09:04:58;;;;;;;7.78;5.20;;;;;;;22.02;77.16;99456.51;4111934;85;21049;-84
2021/08/21 09:11:20;;;;;;;6.92;4.80;;;;;;;22.09;75.70;99464.69;4094830;85;21421;-85
2021/08/21 09:17:21;;;;;;;6.67;4.75;;;;;;;22.09;74.37;99465.30;4124326;85;21093;-87
2021/08/21 09:23:38;;;;;;;6.28;5.05;;;;;;;22.33;73.96;99467.37;4109969;85;21820;-84
2021/08/21 09:29:43;;;;;;;7.03;5.10;;;;;;;22.98;72.93;99469.22;4119138;85;21874;-85
2021/08/21 09:35:45;;;;;;;7.87;4.37;;;;;;;23.50;70.31;99461.16;4107903;85;21066;-86
2021/08/21 09:41:57;;;;;;;4.78;3.60;;;;;;;24.10;70.03;99457.05;4107565;85;21582;-85
2021/08/21 09:48:05;;;;;;;7.90;5.47;;;;;;;24.71;69.24;99455.62;4123429;85;21551;-86
2021/08/21 09:54:19;;;;;;;10.23;5.05;;;;;;;25.03;67.32;99457.92;4091111;85;21602;-86
2021/08/21 10:00:20;;;;;;;5.37;4.22;;;;;;;25.82;65.89;99452.23;4115420;85;21071;-87
2021/08/21 10:06:22;;;;;;;5.92;4.00;;;;;;;26.51;63.58;99449.55;4113367;85;21065;-86
2021/08/21 10:12:25;;;;;;;13.20;4.37;;;;;;;26.74;63.48;99444.67;4095021;85;21061;-87
2021/08/21 10:18:26;;;;;;;5.35;4.00;;;;;;;27.44;62.44;99443.42;4107770;85;21049;-86
2021/08/21 10:24:38;;;;;;;3.80;3.45;;;;;;;28.20;59.78;99444.73;4110931;85;21062;-87
2021/08/21 10:30:46;;;;;;;5.05;3.30;;;;;;;28.73;59.49;99439.83;4115898;85;21589;-87
2021/08/21 10:36:57;;;;;;;5.87;4.30;;;;;;;29.08;57.75;99443.51;4092249;85;21017;-86
2021/08/21 10:43:05;;;;;;;5.75;4.45;;;;;;;28.06;56.86;99448.31;4100876;85;21877;-87
2021/08/21 10:49:08;;;;;;;4.50;4.00;;;;;;;26.92;56.59;99448.19;4069528;85;21052;-86
2021/08/21 10:55:21;;;;;;;8.03;4.12;;;;;;;26.87;56.63;99442.45;4099856;85;21185;-86
2021/08/21 11:01:23;;;;;;;4.70;3.98;;;;;;;27.13;55.71;99435.14;4105788;85;21387;-86
2021/08/21 11:07:41;;;;;;;5.47;4.03;;;;;;;27.77;55.61;99434.15;4104951;85;21056;-87
2021/08/21 11:14:03;;;;;;;6.90;4.45;;;;;;;27.67;54.77;99427.81;4115566;85;21074;-87
2021/08/21 11:20:29;;;;;;;5.78;4.12;;;;;;;28.18;54.00;99425.52;4096421;85;21086;-87
2021/08/21 11:26:30;;;;;;;5.53;3.47;;;;;;;28.32;52.62;99421.16;4119872;85;21061;-86
2021/08/21 11:32:45;;;;;;;4.28;3.80;;;;;;;27.71;52.46;99426.20;4090450;85;21066;-87
2021/08/21 11:38:46;;;;;;;5.65;4.05;;;;;;;27.76;51.48;99415.08;4124532;84;22091;-88
2021/08/21 11:45:02;;;;;;;5.70;4.60;;;;;;;27.93;52.06;99421.84;4113937;85;21034;-85
2021/08/21 11:51:06;;;;;;;;;;;;;;;27.99;50.65;99415.69;4125544;85;21108;-87
2021/08/21 11:57:07;;;;;;;5.78;3.98;;;;;;;27.37;50.63;99418.50;4102946;85;20434;-86
2021/08/21 12:03:13;;;;;;;6.08;3.62;;;;;;;27.03;50.74;99413.98;4104139;85;21097;-86
2021/08/21 12:09:17;;;;;;;5.20;3.62;;;;;;;26.65;50.40;99408.20;4111063;85;21034;-84
2021/08/21 12:15:27;;;;;;;4.37;3.17;;;;;;;26.24;49.86;99406.09;4094645;85;21070;-87
2021/08/21 12:21:29;;;;;;;4.30;3.40;;;;;;;25.89;49.75;99400.81;4112086;85;21070;-86
2021/08/21 12:27:32;;;;;;;4.67;3.90;;;;;;;25.67;50.27;99393.17;4130645;85;21058;-85
2021/08/21 12:33:41;;;;;;;6.67;4.35;;;;;;;25.22;49.59;99390.30;4119174;85;21057;-85
2021/08/21 12:39:42;;;;;;;5.47;4.95;;;;;;;25.01;49.90;99397.41;4117243;85;21562;-85
2021/08/21 12:45:44;;;;;;;7.40;3.95;;;;;;;24.85;50.36;99399.85;4105049;85;21089;-86
2021/08/21 12:51:46;;;;;;;7.30;4.25;;;;;;;24.73;50.44;99395.12;4119947;85;21045;-84
2021/08/21 12:57:47;;;;;;;6.10;3.87;;;;;;;24.60;50.51;99391.63;4002987;87;21083;-86
2021/08/21 13:04:09;;;;;;;5.83;4.05;;;;;;;24.37;50.51;99392.11;3997879;86;21063;-85
2021/08/21 13:10:18;;;;;;;7.15;4.22;;;;;;;24.08;50.61;99381.23;4006981;87;21562;-86
2021/08/21 13:16:20;;;;;;;4.20;3.80;;;;;;;24.08;50.61;99381.23;4003861;86;21186;-86
2021/08/21 13:22:27;;;;;;;5.37;4.58;;;;;;;23.94;51.27;99369.16;4016807;86;21499;-86
2021/08/21 13:28:27;;;;;;;6.75;4.65;;;;;;;24.09;51.53;99379.20;4005218;87;21106;-86
2021/08/21 13:34:28;;;;;;;6.00;4.37;;;;;;;24.16;51.22;99379.73;4005815;87;21071;-86
2021/08/21 13:40:29;;;;;;;5.10;4.60;;;;;;;23.99;52.55;99374.16;4004670;86;21528;-86
2021/08/21 13:46:33;;;;;;;7.70;4.50;;;;;;;23.89;52.17;99369.73;4004680;87;21071;-86
2021/08/21 13:52:35;;;;;;;4.87;4.37;;;;;;;23.92;52.90;99366.63;4022232;86;21041;-86
2021/08/21 13:58:36;;;;;;;4.97;4.42;;;;;;;23.98;52.07;99371.22;4039384;86;21527;-86
2021/08/21 14:04:37;;;;;;;6.83;4.20;;;;;;;23.93;51.82;99368.97;3997708;86;21056;-86
2021/08/21 14:10:38;;;;;;;5.55;4.72;;;;;;;23.93;51.65;99356.39;4016296;86;21068;-86
2021/08/21 14:16:40;;;;;;;5.30;4.65;;;;;;;23.89;51.69;99364.75;4015273;86;21099;-86
2021/08/21 14:22:45;;;;;;;5.03;4.30;;;;;;;23.83;51.68;99360.98;4009814;87;21044;-86
2021/08/21 14:28:46;;;;;;;5.53;4.75;;;;;;;23.82;52.14;99357.40;4007013;86;21469;-85
2021/08/21 14:34:48;;;;;;;5.12;4.22;;;;;;;23.82;51.92;99356.64;4003811;87;21072;-86
2021/08/21 14:40:49;;;;;;;5.30;4.80;;;;;;;23.80;52.06;99357.09;3990994;86;21130;-85
2021/08/21 14:46:50;;;;;;;6.17;4.75;;;;;;;23.81;52.11;99352.27;3992869;87;21137;-85
2021/08/21 14:52:53;;;;;;;6.08;4.97;;;;;;;23.75;51.54;99355.48;4008939;87;21034;-85
2021/08/21 14:58:54;;;;;;;4.92;4.30;;;;;;;23.63;51.35;99350.14;4014140;87;21098;-86
2021/08/21 15:05:01;;;;;;;6.92;4.92;;;;;;;23.54;51.62;99344.45;4012844;86;21086;-84
2021/08/21 15:11:02;;;;;;;6.90;4.80;;;;;;;23.49;51.68;99345.03;4026523;87;21594;-85
2021/08/21 15:17:05;;;;;;;5.20;4.67;;;;;;;23.43;51.65;99341.89;3954964;87;21034;-85
2021/08/21 15:23:06;;;;;;;5.33;4.83;;;;;;;23.31;51.56;99337.11;4010182;87;21564;-86
2021/08/21 15:29:08;;;;;;;7.05;4.92;;;;;;;23.26;52.15;99332.88;4113574;85;21629;-86
2021/08/21 15:35:13;;;;;;;8.58;4.90;;;;;;;23.19;53.24;99339.45;4101980;85;21046;-86
2021/08/21 15:41:14;;;;;;;5.65;5.00;;;;;;;23.11;53.05;99337.37;4112854;85;21019;-86
2021/08/21 15:47:17;;;;;;;5.62;4.62;;;;;;;23.04;52.79;99339.78;4118334;85;21055;-86
2021/08/21 15:53:22;;;;;;;6.22;4.72;;;;;;;22.96;53.58;99328.69;4100840;85;21946;-85
2021/08/21 15:59:24;;;;;;;5.58;4.72;;;;;;;22.81;53.80;99332.41;4118364;85;21061;-86
2021/08/21 16:05:25;;;;;;;7.08;5.08;;;;;;;22.70;54.34;99327.18;4100528;85;21359;-86
2021/08/21 16:11:26;;;;;;;7.95;5.10;;;;;;;22.59;54.66;99327.34;4092341;85;21092;-86
2021/08/21 16:17:31;;;;;;;4.60;4.17;;;;;;;22.46;54.73;99326.53;4141324;85;21063;-86
2021/08/21 16:23:31;;;;;;;9.63;5.35;;;;;;;22.34;55.32;99329.50;4104111;85;21103;-85
2021/08/21 16:29:33;;;;;;;5.75;5.15;;;;;;;22.25;55.27;99329.39;4101956;85;21113;-86
2021/08/21 16:35:36;;;;;;;6.47;5.28;;;;;;;22.19;55.41;99333.17;4084645;85;21049;-86
2021/08/21 16:41:38;;;;;;;6.72;4.87;;;;;;;22.07;55.51;99329.13;4098684;85;21089;-86
2021/08/21 16:47:40;;;;;;;5.70;4.85;;;;;;;21.91;55.57;99330.59;4096763;85;21544;-86
2021/08/21 16:53:42;;;;;;;5.87;5.25;;;;;;;21.81;55.70;99329.52;4088297;85;21098;-86
2021/08/21 16:59:43;;;;;;;6.29;4.94;;;;;;;21.74;55.76;99330.47;4004107;85;9999671;-86
2021/08/21 17:05:44;;;;;;;5.92;4.90;;;;;;;21.65;56.04;99324.16;4082328;85;21378;-86
2021/08/21 17:11:45;;;;;;;5.85;5.25;;;;;;;21.55;56.50;99336.38;4095496;85;21036;-86
2021/08/21 17:17:47;;;;;;;6.33;5.70;;;;;;;21.38;57.01;99340.43;4099978;85;21979;-86
2021/08/21 17:23:48;;;;;;;9.83;5.70;;;;;;;21.22;57.32;99341.09;4111062;85;21650;-86
2021/08/21 17:29:49;;;;;;;9.00;6.58;;;;;;;21.02;57.83;99351.53;4102897;85;21015;-86
2021/08/21 17:35:51;;;;;;;10.18;6.03;;;;;;;20.82;58.92;99353.59;4013465;87;21632;-86
2021/08/21 17:41:53;;;;;;;11.12;7.10;;;;;;;20.65;59.44;99359.77;4003480;86;21065;-85
2021/08/21 17:47:54;;;;;;;11.68;7.65;;;;;;;20.40;60.18;99355.98;4116846;85;21687;-86
2021/08/21 17:53:55;;;;;;;18.12;12.55;;;;;;;20.16;61.08;99360.88;4121843;85;21022;-86
2021/08/21 17:59:57;;;;;;;45.48;28.77;;;;;;;19.86;61.87;99363.87;4108631;85;21115;-85
2021/08/21 18:05:59;;;;;;;29.10;18.23;;;;;;;19.65;62.65;99367.09;4116103;85;21452;-86
2021/08/21 18:12:04;;;;;;;39.23;22.27;;;;;;;19.50;63.87;99375.48;4102121;85;21430;-86
2021/08/21 18:18:05;;;;;;;29.32;18.90;;;;;;;19.38;64.48;99376.91;4115004;85;21038;-85
2021/08/21 18:24:06;;;;;;;24.77;17.15;;;;;;;19.19;64.84;99387.92;4112927;85;21019;-85
2021/08/21 18:30:08;;;;;;;30.45;20.27;;;;;;;18.82;65.69;99395.88;4100718;85;21010;-85
2021/08/21 18:36:11;;;;;;;26.48;18.82;;;;;;;18.58;66.32;99401.98;4093324;85;20994;-85
2021/08/21 18:42:13;;;;;;;31.10;20.45;;;;;;;18.37;67.52;99402.24;4109112;86;21014;-85
2021/08/21 18:48:14;;;;;;;36.77;27.13;;;;;;;18.27;67.93;99410.12;4115912;85;21538;-85
2021/08/21 18:54:16;;;;;;;32.33;22.05;;;;;;;18.10;68.23;99414.50;4114066;85;21037;-85
2021/08/21 19:00:18;;;;;;;29.63;21.17;;;;;;;17.88;68.92;99411.20;4103021;85;21046;-85
2021/08/21 19:06:19;;;;;;;28.52;22.13;;;;;;;17.79;69.83;99412.89;4134060;85;20972;-85
2021/08/21 19:12:25;;;;;;;44.63;29.45;;;;;;;17.68;70.34;99410.22;4092764;85;21645;-85
2021/08/21 19:18:24;;;;;;;31.05;22.25;;;;;;;17.46;70.71;99414.40;4116844;85;20971;-85
2021/08/21 19:24:25;;;;;;;37.38;23.87;;;;;;;17.24;71.40;99419.94;4109380;85;21065;-85
2021/08/21 19:30:29;;;;;;;29.25;19.30;;;;;;;17.11;71.71;99419.66;4088465;85;21062;-84
2021/08/21 19:36:30;;;;;;;28.73;17.42;;;;;;;17.02;72.12;99419.31;3982778;85;10000351;-85
2021/08/21 19:42:31;;;;;;;25.57;18.05;;;;;;;16.96;72.29;99428.48;4119267;85;21050;-85
2021/08/21 19:48:33;;;;;;;24.50;17.15;;;;;;;16.87;72.77;99430.30;4092830;85;21118;-85
2021/08/21 19:54:35;;;;;;;28.50;20.60;;;;;;;16.64;73.22;99426.52;4121359;85;21027;-85
2021/08/21 20:00:36;;;;;;;29.45;20.20;;;;;;;16.52;73.68;99419.47;4100958;85;21007;-84
2021/08/21 20:06:37;;;;;;;35.13;23.25;;;;;;;16.44;74.22;99422.11;4099231;85;20979;-85
2021/08/21 20:12:39;;;;;;;35.08;22.67;;;;;;;16.36;74.77;99428.83;4127021;85;21031;-85
2021/08/21 20:18:40;;;;;;;35.70;23.62;;;;;;;16.23;75.07;99422.17;4099036;85;21017;-84
2021/08/21 20:24:41;;;;;;;41.30;24.67;;;;;;;16.06;75.56;99427.19;4105201;85;20980;-84
2021/08/21 20:30:51;;;;;;;45.88;28.85;;;;;;;16.05;76.13;99427.59;4114302;85;21553;-85
2021/08/21 20:36:53;;;;;;;40.80;26.55;;;;;;;15.97;76.36;99426.05;4109870;85;21022;-85
2021/08/21 20:42:54;;;;;;;38.25;25.37;;;;;;;15.89;76.69;99424.48;4138885;84;21041;-85
2021/08/21 20:48:55;;;;;;;41.28;25.77;;;;;;;15.78;77.27;99425.91;4096046;85;21010;-84
2021/08/21 20:54:58;;;;;;;36.93;24.52;;;;;;;15.68;77.33;99430.09;4108179;85;21129;-84
2021/08/21 21:01:00;;;;;;;37.05;24.05;;;;;;;15.48;77.51;99433.86;4129711;85;21046;-84
2021/08/21 21:07:02;;;;;;;37.03;25.00;;;;;;;15.36;78.04;99437.77;4119365;85;21052;-84
2021/08/21 21:13:04;;;;;;;36.35;23.10;;;;;;;15.25;78.47;99432.86;4117744;85;21053;-84
2021/08/21 21:19:05;;;;;;;36.10;21.97;;;;;;;15.20;78.74;99433.27;4121176;85;21109;-83
2021/08/21 21:25:09;;;;;;;31.20;20.32;;;;;;;15.06;78.54;99425.01;4083637;85;21566;-84
2021/08/21 21:31:11;;;;;;;26.37;19.48;;;;;;;15.04;79.36;99426.56;4100428;85;21399;-84
2021/08/21 21:37:12;;;;;;;30.48;20.37;;;;;;;14.94;79.55;99426.76;4102074;85;21098;-83
2021/08/21 21:43:14;;;;;;;26.57;18.37;;;;;;;14.96;80.08;99430.50;4128244;85;21628;-84
2021/08/21 21:49:15;;;;;;;30.77;19.32;;;;;;;14.95;80.25;99429.73;4137851;85;21125;-84
2021/08/21 21:55:16;;;;;;;29.65;18.77;;;;;;;14.85;80.55;99436.59;4090423;85;21098;-84
2021/08/21 22:01:18;;;;;;;23.52;16.90;;;;;;;14.75;80.68;99448.41;4113884;85;21815;-84
2021/08/21 22:07:19;;;;;;;29.65;19.67;;;;;;;14.71;81.49;99438.75;4114333;85;21102;-83
2021/08/21 22:13:20;;;;;;;26.62;18.67;;;;;;;14.71;81.24;99436.00;4108657;85;21868;-84
2021/08/21 22:19:21;;;;;;;27.87;17.92;;;;;;;14.57;81.42;99427.70;4129211;85;21895;-84
2021/08/21 22:25:22;;;;;;;24.37;18.48;;;;;;;14.47;81.39;99431.22;4094492;85;21018;-84
2021/08/21 22:31:25;;;;;;;28.77;19.10;;;;;;;14.26;81.90;99427.05;4125623;85;21073;-83
2021/08/21 22:37:26;;;;;;;26.37;18.45;;;;;;;14.31;82.43;99423.92;4121708;85;21026;-83
2021/08/21 22:43:28;;;;;;;24.72;18.90;;;;;;;14.31;82.60;99428.63;4119986;85;21003;-83
2021/08/21 22:49:29;;;;;;;28.75;16.60;;;;;;;14.30;82.69;99427.83;4124125;85;21479;-83
2021/08/21 22:55:30;;;;;;;21.85;16.73;;;;;;;14.17;82.74;99419.71;4116575;85;21064;-83
2021/08/21 23:01:32;;;;;;;29.30;19.55;;;;;;;14.12;83.26;99416.75;4122388;85;21108;-83
2021/08/21 23:07:34;;;;;;;27.55;19.48;;;;;;;14.11;83.32;99416.53;4124967;85;21569;-83
2021/08/21 23:13:36;;;;;;;22.35;17.07;;;;;;;14.09;83.49;99415.36;4141667;85;21420;-83
2021/08/21 23:19:37;;;;;;;29.48;17.75;;;;;;;14.03;84.04;99409.41;4130729;85;21570;-83
2021/08/21 23:25:38;;;;;;;26.23;17.20;;;;;;;14.05;84.03;99405.70;4106645;85;21073;-83
2021/08/21 23:31:42;;;;;;;24.70;18.62;;;;;;;13.96;84.04;99402.53;4119008;85;21649;-83
2021/08/21 23:37:42;;;;;;;24.37;16.20;;;;;;;13.88;84.50;99400.11;4128914;85;21092;-83
2021/08/21 23:43:44;;;;;;;24.02;17.12;;;;;;;13.97;84.97;99401.92;4133128;85;21577;-83
2021/08/21 23:49:46;;;;;;;21.45;16.20;;;;;;;13.91;84.64;99400.72;4122108;85;21042;-83
2021/08/21 23:55:47;;;;;;;21.65;16.90;;;;;;;13.82;84.60;99401.67;4103559;85;21372;-83
